Terminal Aerodrome Forecast
Issued by NWS

Home | Current Version | Previous Version | Text Only | Print | Product List | Glossary Off
Versions: 1 2 3 4 5 6 7 8 9 10 11 12 13 14 15 16 17 18

000
FTUS41 KCLE 200500
TAFFDY
TAF
KFDY 200530Z 2006/2106 VRB03KT 4SM BR BKN050
     FM200900 00000KT 1SM BR SCT004
     FM201300 07003KT P6SM SCT025
     FM201500 VRB03KT P6SM SCT050
     FM202100 17004KT P6SM SCT250=

USA.gov is the U.S. government's official web portal to all federal, state and local government web resources and services.